Time;durP1;ratioP1;P1;durP2;ratioP2;P2;SDS_P1;SDS_P2;PMS_P1;PMS_P2;Temp;Humidity;BMP_temperature;BMP_pressure;BME280_temperature;BME280_humidity;BME280_pressure;Samples;Min_cycle;Max_cycle;Signal;HPM_P1;HPM_P2
2021/12/15 00:00:09;;;;;;;10.03;6.37;;;7.70;99.90;;;;;;5050032;28;20213;-78
2021/12/15 00:02:35;;;;;;;8.33;6.43;;;7.60;99.90;;;;;;5068081;28;20204;-79
2021/12/15 00:05:01;;;;;;;7.97;5.77;;;7.70;99.90;;;;;;5059694;28;20575;-82
2021/12/15 00:07:28;;;;;;;8.70;6.20;;;7.80;99.90;;;;;;5067322;28;20169;-77
2021/12/15 00:09:54;;;;;;;9.20;5.97;;;7.70;99.90;;;;;;5067832;28;20290;-80
2021/12/15 00:12:20;;;;;;;7.63;5.53;;;7.70;99.90;;;;;;5068306;28;20678;-79
2021/12/15 00:14:46;;;;;;;8.03;5.67;;;7.70;99.90;;;;;;5067788;28;20512;-83
2021/12/15 00:17:12;;;;;;;8.23;5.63;;;7.70;99.90;;;;;;5058448;28;20252;-77
2021/12/15 00:19:38;;;;;;;8.23;5.77;;;7.70;99.90;;;;;;5060951;28;20278;-79
2021/12/15 00:22:05;;;;;;;7.23;5.33;;;7.70;99.90;;;;;;5047323;28;20188;-77
2021/12/15 00:24:30;;;;;;;6.63;4.87;;;7.70;99.90;;;;;;5047348;28;20241;-83
2021/12/15 00:26:57;;;;;;;7.93;6.07;;;7.80;99.90;;;;;;5046779;28;20213;-79
2021/12/15 00:29:24;;;;;;;5.87;4.93;;;7.70;99.90;;;;;;5047300;28;20610;-80
2021/12/15 00:31:50;;;;;;;8.30;5.47;;;7.80;99.90;;;;;;5065376;28;20182;-77
2021/12/15 00:34:17;;;;;;;5.67;4.63;;;7.80;99.90;;;;;;5064306;28;20274;-79
2021/12/15 00:36:46;;;;;;;7.17;4.80;;;7.80;99.90;;;;;;5048785;28;20188;-78
2021/12/15 00:39:16;;;;;;;5.97;4.13;;;7.80;99.90;;;;;;5049513;28;20234;-81
2021/12/15 00:41:42;;;;;;;6.53;4.93;;;7.80;99.90;;;;;;5066912;28;20182;-83
2021/12/15 00:44:09;;;;;;;6.57;4.90;;;7.80;99.90;;;;;;5049749;28;20201;-80
2021/12/15 00:46:36;;;;;;;8.77;5.43;;;7.90;99.90;;;;;;5067747;28;20193;-82
2021/12/15 00:49:03;;;;;;;6.70;5.20;;;7.80;99.90;;;;;;5067744;28;20192;-83
2021/12/15 00:51:29;;;;;;;7.40;5.33;;;7.90;99.90;;;;;;5049366;28;20189;-80
2021/12/15 00:53:54;;;;;;;6.70;4.53;;;7.90;99.90;;;;;;5067647;28;20173;-78
2021/12/15 00:56:20;;;;;;;5.70;4.70;;;7.90;99.90;;;;;;5066953;28;20260;-78
2021/12/15 00:58:46;;;;;;;6.47;5.00;;;7.80;99.90;;;;;;5067019;28;20205;-78
2021/12/15 01:01:11;;;;;;;6.13;4.73;;;7.80;99.90;;;;;;5065906;28;20177;-80
2021/12/15 01:03:37;;;;;;;6.20;4.57;;;7.80;99.90;;;;;;5067379;28;20231;-80
2021/12/15 01:06:11;;;;;;;7.10;5.00;;;7.90;99.90;;;;;;5049942;28;20180;-77
2021/12/15 01:08:45;;;;;;;7.00;4.60;;;7.80;99.90;;;;;;5067654;28;20764;-77
2021/12/15 01:11:50;;;;;;;6.07;4.57;;;7.80;99.90;;;;;;5050318;28;20197;-77
2021/12/15 01:19:54;;;;;;;6.33;4.63;;;7.80;99.90;;;;;;5065542;28;20201;-78
2021/12/15 01:22:52;;;;;;;7.50;4.90;;;7.80;99.90;;;;;;5066424;28;20201;-80
2021/12/15 01:25:34;;;;;;;7.57;5.23;;;7.80;99.90;;;;;;5048175;28;20197;-79
2021/12/15 01:28:00;;;;;;;7.10;4.27;;;7.70;99.90;;;;;;5047227;28;20202;-78
2021/12/15 01:30:33;;;;;;;7.27;4.93;;;7.70;99.90;;;;;;5065892;28;20237;-78
2021/12/15 01:33:00;;;;;;;6.60;5.30;;;7.80;99.90;;;;;;5048318;28;20529;-79
2021/12/15 01:35:26;;;;;;;5.90;4.70;;;7.80;99.90;;;;;;5047523;28;20181;-79
2021/12/15 01:37:52;;;;;;;6.23;4.93;;;7.80;99.90;;;;;;5047641;28;20191;-76
2021/12/15 01:40:33;;;;;;;6.87;5.33;;;7.80;99.90;;;;;;5047525;28;20197;-78
2021/12/15 01:43:00;;;;;;;7.17;5.00;;;7.80;99.90;;;;;;5065789;28;20173;-78
2021/12/15 01:48:13;;;;;;;5.67;4.17;;;7.80;99.90;;;;;;5065404;28;20193;-80
2021/12/15 01:50:40;;;;;;;5.77;4.27;;;7.90;99.90;;;;;;5064910;28;20285;-79
2021/12/15 01:53:08;;;;;;;6.17;4.40;;;7.90;99.90;;;;;;5047233;28;20181;-80
2021/12/15 01:55:33;;;;;;;5.13;4.33;;;7.90;99.90;;;;;;5047095;28;20189;-77
2021/12/15 01:57:59;;;;;;;5.73;4.70;;;7.90;99.90;;;;;;5065281;28;20178;-80
2021/12/15 02:00:43;;;;;;;5.77;4.40;;;7.90;99.90;;;;;;5064323;28;20201;-80
2021/12/15 02:03:09;;;;;;;5.43;4.03;;;8.00;99.90;;;;;;5064938;28;20715;-79
2021/12/15 02:05:35;;;;;;;5.50;4.03;;;7.80;99.90;;;;;;5064606;28;20257;-81
2021/12/15 02:08:02;;;;;;;4.87;4.20;;;7.80;99.90;;;;;;5064866;28;20201;-79
2021/12/15 02:10:31;;;;;;;6.47;4.37;;;7.90;99.90;;;;;;5065980;28;20667;-81
2021/12/15 02:13:00;;;;;;;5.63;4.33;;;8.00;99.90;;;;;;5048772;28;20170;-79
2021/12/15 02:15:31;;;;;;;5.93;4.33;;;7.90;99.90;;;;;;5060349;28;20243;-79
2021/12/15 02:17:58;;;;;;;5.63;4.50;;;7.90;99.90;;;;;;5070297;28;20184;-82
2021/12/15 02:20:36;;;;;;;5.23;3.77;;;7.80;99.90;;;;;;5068803;28;20201;-80
2021/12/15 02:23:03;;;;;;;5.10;3.80;;;7.90;99.90;;;;;;5052347;28;20173;-78
2021/12/15 02:25:28;;;;;;;5.03;4.13;;;7.90;99.90;;;;;;5060530;28;20731;-77
2021/12/15 02:27:54;;;;;;;5.37;4.30;;;7.80;99.90;;;;;;5052258;28;20260;-79
2021/12/15 02:38:24;;;;;;;6.00;4.40;;;7.80;99.90;;;;;;5069953;28;20268;-78
2021/12/15 02:40:50;;;;;;;6.63;4.30;;;7.80;99.90;;;;;;5069685;28;20205;-78
2021/12/15 02:43:16;;;;;;;5.03;4.10;;;7.80;99.90;;;;;;5052211;28;20186;-81
2021/12/15 02:45:41;;;;;;;5.70;4.43;;;7.80;99.90;;;;;;5070061;28;20178;-81
2021/12/15 02:48:07;;;;;;;5.10;4.13;;;7.80;99.90;;;;;;5051954;28;20640;-80
2021/12/15 02:50:34;;;;;;;5.13;4.10;;;7.80;99.90;;;;;;5069754;28;20200;-80
2021/12/15 02:52:59;;;;;;;5.80;4.63;;;7.80;99.90;;;;;;5070606;28;20224;-78
2021/12/15 02:55:27;;;;;;;4.77;4.20;;;7.80;99.90;;;;;;5069325;28;20652;-79
2021/12/15 02:57:53;;;;;;;7.20;4.90;;;7.80;99.90;;;;;;5069161;28;20177;-81
2021/12/15 03:00:23;;;;;;;7.70;5.07;;;7.90;99.90;;;;;;5069626;28;20693;-79
2021/12/15 03:05:31;;;;;;;6.47;5.33;;;7.80;99.90;;;;;;5069064;28;20697;-80
2021/12/15 03:08:07;;;;;;;7.17;5.00;;;7.80;99.90;;;;;;5051235;28;20177;-79
2021/12/15 03:16:04;;;;;;;6.77;5.00;;;7.80;99.90;;;;;;5069465;28;20204;-79
2021/12/15 03:18:30;;;;;;;8.27;6.40;;;7.80;99.90;;;;;;5068176;28;20193;-77
2021/12/15 03:21:11;;;;;;;7.23;5.80;;;7.80;99.90;;;;;;5068524;28;20849;-78
2021/12/15 03:23:52;;;;;;;6.87;5.37;;;7.80;99.90;;;;;;5050240;28;20197;-78
2021/12/15 03:26:24;;;;;;;7.77;6.10;;;7.80;99.90;;;;;;5058521;28;20184;-78
2021/12/15 03:39:29;;;;;;;9.57;6.37;;;7.80;99.90;;;;;;5068489;28;20288;-78
2021/12/15 03:42:01;;;;;;;7.93;6.03;;;7.80;99.90;;;;;;5049524;28;20181;-78
2021/12/15 03:44:30;;;;;;;9.07;6.17;;;7.80;99.90;;;;;;5050121;28;20193;-80
2021/12/15 03:46:57;;;;;;;8.60;6.17;;;7.80;99.90;;;;;;5068374;28;21120;-79
2021/12/15 03:49:23;;;;;;;8.53;6.00;;;7.80;99.90;;;;;;5050522;28;20214;-77
2021/12/15 03:51:48;;;;;;;9.37;5.97;;;7.80;99.90;;;;;;5050412;28;20260;-79
2021/12/15 03:54:17;;;;;;;9.40;6.50;;;7.80;99.90;;;;;;5050802;28;20185;-79
2021/12/15 03:56:44;;;;;;;7.07;5.73;;;7.80;99.90;;;;;;5049991;28;20188;-78
2021/12/15 03:59:10;;;;;;;8.40;5.83;;;7.90;99.90;;;;;;5067611;28;20217;-76
2021/12/15 04:01:37;;;;;;;7.23;5.73;;;7.90;99.90;;;;;;5068163;28;20264;-79
2021/12/15 04:04:02;;;;;;;7.80;5.87;;;7.90;99.90;;;;;;5047933;28;20233;-81
2021/12/15 04:06:32;;;;;;;9.57;6.77;;;7.80;99.90;;;;;;5066155;28;20536;-80
2021/12/15 04:08:59;;;;;;;8.37;6.23;;;7.80;99.90;;;;;;5066556;28;20188;-79
2021/12/15 04:11:32;;;;;;;8.57;6.70;;;7.80;99.90;;;;;;5066618;28;20558;-80
2021/12/15 04:14:00;;;;;;;7.73;6.27;;;7.80;99.90;;;;;;5049576;28;20335;-80
2021/12/15 04:16:59;;;;;;;8.83;6.50;;;7.80;99.90;;;;;;5049929;28;20182;-79
2021/12/15 04:19:17;;;;;;;9.43;6.67;;;7.80;99.90;;;;;;5068108;28;20217;-82
2021/12/15 04:21:43;;;;;;;10.17;6.57;;;7.80;99.90;;;;;;5050118;28;20262;-79
2021/12/15 04:24:13;;;;;;;9.63;6.70;;;7.70;99.90;;;;;;5049249;28;20200;-79
2021/12/15 04:26:38;;;;;;;9.40;7.20;;;7.60;99.90;;;;;;5067026;28;20675;-79
2021/12/15 04:29:05;;;;;;;10.63;7.53;;;7.70;99.90;;;;;;5049313;28;20185;-78
2021/12/15 04:31:34;;;;;;;9.83;7.10;;;7.70;99.90;;;;;;5048572;28;20178;-80
2021/12/15 04:34:05;;;;;;;9.97;6.80;;;7.70;99.90;;;;;;5046982;28;20192;-79
2021/12/15 04:36:35;;;;;;;10.17;7.40;;;7.70;99.90;;;;;;5047784;28;20589;-80
2021/12/15 04:39:01;;;;;;;9.43;7.00;;;7.70;99.90;;;;;;5065832;28;20227;-79
2021/12/15 04:41:27;;;;;;;9.07;6.63;;;7.80;99.90;;;;;;5066769;28;20652;-78
2021/12/15 04:43:58;;;;;;;9.63;6.40;;;7.90;99.90;;;;;;5066946;28;20250;-79
2021/12/15 04:46:36;;;;;;;7.80;6.00;;;7.80;99.90;;;;;;5055131;28;20181;-78
2021/12/15 04:49:05;;;;;;;9.97;6.63;;;7.90;99.90;;;;;;5048185;28;20204;-78
2021/12/15 04:51:31;;;;;;;9.13;6.63;;;7.90;99.90;;;;;;5066075;28;20652;-78
2021/12/15 04:53:57;;;;;;;7.83;6.47;;;7.90;99.90;;;;;;5048303;28;20188;-80
2021/12/15 04:56:25;;;;;;;8.43;6.27;;;7.90;99.90;;;;;;5048312;28;20278;-80
2021/12/15 04:58:52;;;;;;;7.30;5.77;;;7.90;99.90;;;;;;5048364;28;20689;-79
2021/12/15 05:01:17;;;;;;;8.07;5.73;;;7.90;99.90;;;;;;5048173;28;20260;-79
2021/12/15 05:03:44;;;;;;;8.20;5.77;;;7.90;99.90;;;;;;5066576;28;20300;-79
2021/12/15 05:06:11;;;;;;;8.73;6.43;;;8.00;99.90;;;;;;5057240;28;21082;-80
2021/12/15 05:08:38;;;;;;;8.63;6.67;;;7.90;99.90;;;;;;5066917;28;20200;-78
2021/12/15 05:11:05;;;;;;;8.30;6.40;;;8.00;99.90;;;;;;5048023;28;20204;-78
2021/12/15 05:13:32;;;;;;;7.53;5.40;;;8.00;99.90;;;;;;5066087;28;20188;-79
2021/12/15 05:15:59;;;;;;;8.33;6.23;;;8.00;99.90;;;;;;5047266;28;20205;-78
2021/12/15 05:18:25;;;;;;;9.20;5.73;;;8.00;99.90;;;;;;5048141;28;20683;-78
2021/12/15 05:20:53;;;;;;;6.83;5.13;;;8.00;99.90;;;;;;5056764;28;20205;-78
2021/12/15 05:23:20;;;;;;;7.70;6.20;;;8.00;99.90;;;;;;5065447;28;20173;-78
2021/12/15 05:25:47;;;;;;;8.63;5.77;;;8.00;99.90;;;;;;5048125;28;20181;-80
2021/12/15 05:28:13;;;;;;;6.90;5.57;;;8.10;99.90;;;;;;5065628;28;20174;-78
2021/12/15 05:30:40;;;;;;;7.30;5.37;;;8.00;99.90;;;;;;5047442;28;20197;-78
2021/12/15 05:33:06;;;;;;;6.43;5.50;;;8.10;99.90;;;;;;5047785;28;20725;-80
2021/12/15 05:35:33;;;;;;;7.53;5.97;;;8.10;99.90;;;;;;5045865;28;20190;-79
2021/12/15 05:38:02;;;;;;;7.17;5.30;;;8.10;99.90;;;;;;5064547;28;20177;-80
2021/12/15 05:40:29;;;;;;;5.90;4.93;;;8.10;99.90;;;;;;5046507;28;20201;-79
2021/12/15 05:42:58;;;;;;;6.87;5.07;;;8.10;99.90;;;;;;5064667;28;20174;-80
2021/12/15 05:45:30;;;;;;;7.67;5.53;;;8.10;99.90;;;;;;5064457;28;20201;-77
2021/12/15 05:47:58;;;;;;;6.07;4.53;;;8.10;99.90;;;;;;5046745;28;20170;-78
2021/12/15 05:50:27;;;;;;;7.33;5.23;;;8.10;99.90;;;;;;5047007;28;20255;-79
2021/12/15 05:52:53;;;;;;;7.23;5.67;;;8.10;99.90;;;;;;5047918;28;20296;-80
2021/12/15 05:55:19;;;;;;;8.03;5.17;;;8.10;99.90;;;;;;5056702;28;20723;-79
2021/12/15 05:57:46;;;;;;;7.33;5.37;;;8.10;99.90;;;;;;5047028;28;20181;-79
2021/12/15 06:00:21;;;;;;;5.77;4.47;;;8.10;99.90;;;;;;5065903;28;20204;-79
2021/12/15 06:02:47;;;;;;;4.63;3.97;;;8.10;99.90;;;;;;5047970;28;20628;-79
2021/12/15 06:05:14;;;;;;;4.93;4.23;;;8.10;99.90;;;;;;5047963;28;20237;-78
2021/12/15 06:07:40;;;;;;;5.33;4.17;;;8.20;99.90;;;;;;5065893;28;20261;-79
2021/12/15 06:10:10;;;;;;;5.33;4.27;;;8.10;99.90;;;;;;5064820;28;20198;-77
2021/12/15 06:12:36;;;;;;;5.20;4.10;;;8.10;99.90;;;;;;5065828;28;20235;-80
2021/12/15 06:15:02;;;;;;;4.83;3.80;;;8.10;99.90;;;;;;5047603;28;20194;-78
2021/12/15 06:17:28;;;;;;;5.33;4.10;;;8.20;99.90;;;;;;5047808;28;20185;-80
2021/12/15 06:19:54;;;;;;;4.87;3.93;;;8.20;99.90;;;;;;5047715;28;20721;-78
2021/12/15 06:22:24;;;;;;;5.43;4.33;;;8.20;99.90;;;;;;5066077;28;20186;-79
2021/12/15 06:24:52;;;;;;;4.10;3.50;;;8.10;99.90;;;;;;5047888;28;20200;-77
2021/12/15 06:27:19;;;;;;;4.97;3.90;;;8.10;99.90;;;;;;5065054;28;20557;-77
2021/12/15 06:29:47;;;;;;;5.57;4.20;;;8.10;99.90;;;;;;5063454;28;20197;-77
2021/12/15 06:32:12;;;;;;;4.33;3.80;;;8.10;99.90;;;;;;5065875;28;20227;-78
2021/12/15 06:34:38;;;;;;;5.90;4.10;;;8.10;99.90;;;;;;5046361;28;20185;-79
2021/12/15 06:37:04;;;;;;;6.13;4.33;;;8.10;99.90;;;;;;5047316;28;20181;-77
2021/12/15 06:39:30;;;;;;;5.23;4.10;;;8.10;99.90;;;;;;5046894;28;20202;-80
2021/12/15 06:41:57;;;;;;;4.30;3.70;;;8.10;99.90;;;;;;5065124;28;20189;-77
2021/12/15 06:44:22;;;;;;;5.27;4.37;;;8.10;99.90;;;;;;5055860;28;20202;-80
2021/12/15 07:00:14;;;;;;;6.20;4.90;;;8.10;99.90;;;;;;5066825;28;20270;-78
2021/12/15 07:02:40;;;;;;;5.63;4.83;;;8.10;99.90;;;;;;5051677;28;20273;-79
2021/12/15 07:05:08;;;;;;;6.13;4.93;;;8.10;99.90;;;;;;5050636;28;20671;-79
2021/12/15 07:07:35;;;;;;;6.07;5.03;;;8.00;99.90;;;;;;5050258;28;21006;-79
2021/12/15 07:10:03;;;;;;;6.03;5.07;;;8.00;99.90;;;;;;5058220;28;20574;-80
2021/12/15 07:12:28;;;;;;;8.57;5.63;;;8.20;99.90;;;;;;5069351;28;20535;-80
2021/12/15 07:14:54;;;;;;;8.27;5.97;;;8.10;99.90;;;;;;5069444;28;20190;-79
2021/12/15 07:17:23;;;;;;;6.37;5.00;;;8.10;99.90;;;;;;5051390;28;20192;-79
2021/12/15 07:22:43;;;;;;;8.03;5.87;;;8.10;99.90;;;;;;5070650;28;20177;-79
2021/12/15 07:25:12;;;;;;;10.17;6.97;;;8.10;99.90;;;;;;5051811;28;20281;-81
2021/12/15 07:27:39;;;;;;;8.33;6.90;;;8.10;99.90;;;;;;5069378;28;20280;-80
2021/12/15 07:30:06;;;;;;;10.77;6.97;;;8.10;99.90;;;;;;5050073;28;20229;-78
2021/12/15 07:32:32;;;;;;;9.67;6.90;;;8.10;99.90;;;;;;5050486;28;20182;-79
2021/12/15 07:34:57;;;;;;;12.47;7.53;;;8.10;99.90;;;;;;5069172;28;20196;-79
2021/12/15 07:37:23;;;;;;;12.60;7.60;;;8.20;99.90;;;;;;5068412;28;20209;-79
2021/12/15 07:39:58;;;;;;;10.70;7.10;;;8.20;99.90;;;;;;5060144;28;20210;-80
2021/12/15 07:42:35;;;;;;;10.03;7.80;;;8.20;99.90;;;;;;5046908;28;20642;-79
2021/12/15 07:45:03;;;;;;;10.53;7.77;;;8.20;99.90;;;;;;5045379;28;20209;-79
2021/12/15 07:47:29;;;;;;;12.70;8.10;;;8.30;99.90;;;;;;5045619;28;20185;-78
2021/12/15 07:49:57;;;;;;;11.83;8.63;;;8.20;99.90;;;;;;5065286;28;20201;-76
2021/12/15 07:52:23;;;;;;;12.10;7.93;;;8.20;99.90;;;;;;5043697;28;20243;-76
2021/12/15 07:54:49;;;;;;;13.00;8.37;;;8.20;99.90;;;;;;5062761;28;20194;-78
2021/12/15 07:57:18;;;;;;;12.30;8.80;;;8.30;99.90;;;;;;5064793;28;20541;-79
2021/12/15 07:59:44;;;;;;;14.53;8.30;;;8.30;99.90;;;;;;5064159;28;20616;-82
2021/12/15 08:02:09;;;;;;;12.30;8.67;;;8.30;99.90;;;;;;5064300;28;20189;-80
2021/12/15 08:04:35;;;;;;;12.90;8.80;;;8.40;99.90;;;;;;5042263;28;20212;-77
2021/12/15 08:07:00;;;;;;;10.43;7.97;;;8.40;99.90;;;;;;5045035;28;20186;-79
2021/12/15 08:09:26;;;;;;;12.67;8.40;;;8.30;99.90;;;;;;5061729;28;20209;-78
2021/12/15 08:11:52;;;;;;;13.10;8.73;;;8.30;99.90;;;;;;5059982;28;20181;-77
2021/12/15 08:14:18;;;;;;;12.43;8.30;;;8.30;99.90;;;;;;5063239;28;20190;-76
2021/12/15 08:16:43;;;;;;;11.60;7.50;;;8.40;99.90;;;;;;5045768;28;20196;-76
2021/12/15 08:19:10;;;;;;;10.50;7.70;;;8.40;99.90;;;;;;5063613;28;20256;-76
2021/12/15 08:21:36;;;;;;;12.00;8.03;;;8.40;99.90;;;;;;5063489;28;20518;-78
2021/12/15 08:24:01;;;;;;;11.87;8.97;;;8.40;99.90;;;;;;5045485;28;20241;-78
2021/12/15 08:26:27;;;;;;;11.23;7.87;;;8.50;99.90;;;;;;5062790;28;20186;-77
2021/12/15 08:28:54;;;;;;;11.90;8.17;;;8.50;99.90;;;;;;5040816;28;20212;-78
2021/12/15 08:31:19;;;;;;;12.33;8.13;;;8.50;99.90;;;;;;5059060;28;20200;-76
2021/12/15 08:33:45;;;;;;;11.90;8.40;;;8.60;99.90;;;;;;5060583;28;20758;-80
2021/12/15 08:36:12;;;;;;;11.63;7.93;;;8.60;99.90;;;;;;5061521;28;20232;-77
2021/12/15 08:38:40;;;;;;;10.57;7.53;;;8.60;99.90;;;;;;5061939;28;20212;-77
2021/12/15 08:41:12;;;;;;;11.73;8.57;;;8.60;99.90;;;;;;5042862;28;20263;-77
2021/12/15 08:43:38;;;;;;;11.00;7.33;;;8.70;99.90;;;;;;5037945;28;20579;-80
2021/12/15 08:46:14;;;;;;;11.43;7.57;;;8.70;99.90;;;;;;5039040;28;20185;-79
2021/12/15 08:48:40;;;;;;;11.23;7.63;;;8.70;99.90;;;;;;5043558;28;20193;-79
2021/12/15 08:51:08;;;;;;;12.13;7.77;;;8.60;99.90;;;;;;5061964;28;20679;-77
2021/12/15 08:53:35;;;;;;;10.83;8.03;;;8.70;99.90;;;;;;5063322;28;20256;-80
2021/12/15 08:56:02;;;;;;;13.93;8.03;;;8.70;99.90;;;;;;5062231;28;20273;-80
2021/12/15 08:58:28;;;;;;;12.70;8.17;;;8.70;99.90;;;;;;5059060;28;20197;-79
2021/12/15 09:00:56;;;;;;;13.77;7.73;;;8.70;99.90;;;;;;5057080;28;20204;-78
2021/12/15 09:03:23;;;;;;;12.13;7.83;;;8.80;99.90;;;;;;5061167;28;20186;-78
2021/12/15 09:05:52;;;;;;;16.53;7.23;;;8.80;99.90;;;;;;5061458;28;20190;-76
2021/12/15 09:08:20;;;;;;;11.87;7.43;;;8.80;99.90;;;;;;5062174;28;20178;-75
2021/12/15 09:10:46;;;;;;;9.37;7.57;;;8.90;99.90;;;;;;5062447;28;20300;-82
2021/12/15 09:13:13;;;;;;;10.43;7.57;;;8.90;99.90;;;;;;5056331;28;20648;-79
2021/12/15 09:15:41;;;;;;;11.50;6.93;;;8.90;99.90;;;;;;5061344;28;20204;-76
2021/12/15 09:18:08;;;;;;;11.00;6.87;;;8.90;99.90;;;;;;5061651;28;20193;-79
2021/12/15 09:20:36;;;;;;;9.73;7.03;;;8.90;99.90;;;;;;5048912;28;20205;-77
2021/12/15 09:23:06;;;;;;;11.97;6.97;;;9.00;99.90;;;;;;5063639;28;20198;-78
2021/12/15 09:25:32;;;;;;;10.57;6.63;;;8.90;99.90;;;;;;5061179;28;20201;-77
2021/12/15 09:27:58;;;;;;;10.13;7.40;;;8.90;99.90;;;;;;5061829;28;20195;-77
2021/12/15 09:30:26;;;;;;;10.23;6.67;;;9.00;99.90;;;;;;5041548;28;20206;-75
2021/12/15 09:32:52;;;;;;;9.17;6.20;;;9.00;99.90;;;;;;5059068;28;20255;-76
2021/12/15 09:35:20;;;;;;;8.50;6.17;;;8.90;99.90;;;;;;5030822;28;20317;-75
2021/12/15 09:37:48;;;;;;;8.13;6.50;;;8.90;99.90;;;;;;5034648;28;20193;-79
2021/12/15 09:40:16;;;;;;;9.90;6.50;;;8.90;99.90;;;;;;5040037;28;20205;-80
2021/12/15 09:42:42;;;;;;;7.33;5.90;;;8.90;99.90;;;;;;5041233;28;20196;-77
2021/12/15 10:04:38;;;;;;;8.93;5.67;;;9.00;99.90;;;;;;5060369;28;20220;-78
2021/12/15 10:07:19;;;;;;;6.80;5.23;;;8.90;99.90;;;;;;5059596;28;20709;-79
2021/12/15 10:18:42;;;;;;;7.03;5.20;;;9.00;99.90;;;;;;5059502;28;20345;-79
2021/12/15 10:21:24;;;;;;;7.23;5.53;;;9.00;99.90;;;;;;5053876;28;20717;-79
2021/12/15 10:23:51;;;;;;;7.40;5.33;;;9.10;99.90;;;;;;5059502;28;20287;-80
2021/12/15 10:26:18;;;;;;;7.73;4.67;;;9.00;99.90;;;;;;5060372;28;20631;-80
2021/12/15 10:28:48;;;;;;;5.40;4.83;;;9.00;99.90;;;;;;5042806;28;20625;-79
2021/12/15 10:31:16;;;;;;;6.67;4.77;;;9.00;99.90;;;;;;5043021;28;20192;-77
2021/12/15 10:33:54;;;;;;;6.60;5.10;;;9.00;99.90;;;;;;5042788;28;20563;-79
2021/12/15 10:36:33;;;;;;;6.67;4.77;;;8.90;99.90;;;;;;5047366;28;20314;-77
2021/12/15 10:39:04;;;;;;;5.90;4.67;;;9.00;99.90;;;;;;5043440;28;20189;-78
2021/12/15 10:41:40;;;;;;;6.57;4.50;;;9.00;99.90;;;;;;5064381;28;20373;-78
2021/12/15 10:44:21;;;;;;;6.23;4.67;;;9.10;99.90;;;;;;5047289;28;20337;-83
2021/12/15 10:46:58;;;;;;;5.47;4.37;;;9.20;99.90;;;;;;5064265;28;20191;-78
2021/12/15 10:49:30;;;;;;;6.43;5.10;;;9.10;99.90;;;;;;5047124;28;20209;-78
2021/12/15 10:52:01;;;;;;;7.80;5.70;;;9.20;99.90;;;;;;5068003;28;20181;-79
2021/12/15 10:54:35;;;;;;;6.37;5.33;;;9.10;99.90;;;;;;5048129;28;20190;-79
2021/12/15 10:57:08;;;;;;;6.73;4.77;;;9.10;99.90;;;;;;5048187;28;20548;-80
2021/12/15 10:59:37;;;;;;;6.03;4.67;;;9.20;99.90;;;;;;5065638;28;20221;-77
2021/12/15 11:02:09;;;;;;;7.07;5.10;;;9.10;99.90;;;;;;5063423;28;20182;-76
2021/12/15 11:04:41;;;;;;;7.23;5.37;;;9.10;99.90;;;;;;5046909;28;20225;-79
2021/12/15 11:07:11;;;;;;;7.87;5.10;;;9.10;99.90;;;;;;5060618;28;20616;-79
2021/12/15 11:10:06;;;;;;;6.20;5.40;;;9.10;99.90;;;;;;5047096;28;20279;-79
2021/12/15 11:12:40;;;;;;;7.50;5.20;;;9.10;99.90;;;;;;5045870;28;20199;-79
2021/12/15 11:15:09;;;;;;;7.07;5.17;;;9.10;99.90;;;;;;5063232;28;20189;-79
2021/12/15 11:17:45;;;;;;;5.67;4.20;;;9.20;99.90;;;;;;5065241;28;20198;-77
2021/12/15 11:20:24;;;;;;;6.63;5.23;;;9.20;99.90;;;;;;5048300;28;20221;-80
2021/12/15 11:22:57;;;;;;;7.83;5.70;;;9.20;99.90;;;;;;5063887;28;20200;-78
2021/12/15 11:26:01;;;;;;;8.03;5.03;;;9.30;99.90;;;;;;5043726;28;20295;-78
2021/12/15 11:28:32;;;;;;;6.03;4.37;;;9.30;99.90;;;;;;5063231;28;20213;-81
2021/12/15 11:31:15;;;;;;;7.60;5.90;;;9.40;99.90;;;;;;5063215;28;20207;-79
2021/12/15 11:33:50;;;;;;;7.80;5.43;;;9.40;99.90;;;;;;5046558;28;20284;-80
2021/12/15 11:36:32;;;;;;;8.40;5.63;;;9.50;99.90;;;;;;5046134;28;20200;-82
2021/12/15 11:39:24;;;;;;;8.00;5.63;;;9.40;99.90;;;;;;5046336;28;20659;-80
2021/12/15 11:41:52;;;;;;;6.07;4.77;;;9.50;99.90;;;;;;5045902;28;20221;-80
2021/12/15 11:44:20;;;;;;;6.17;5.13;;;9.40;99.90;;;;;;5043781;28;20202;-78
2021/12/15 11:46:55;;;;;;;6.17;5.10;;;9.40;99.90;;;;;;5063723;28;20190;-82
2021/12/15 11:49:27;;;;;;;6.60;5.43;;;9.40;99.90;;;;;;5045849;28;20266;-79
2021/12/15 11:51:59;;;;;;;6.50;5.00;;;9.40;99.90;;;;;;5050540;28;20277;-78
2021/12/15 11:54:38;;;;;;;6.80;4.70;;;9.40;99.90;;;;;;5046522;28;20253;-78
2021/12/15 11:57:07;;;;;;;6.60;4.63;;;9.30;99.90;;;;;;5045580;28;20182;-78
2021/12/15 11:59:38;;;;;;;7.67;4.83;;;9.30;99.90;;;;;;5045674;28;20221;-81
2021/12/15 12:02:17;;;;;;;6.37;4.57;;;9.30;99.90;;;;;;5045921;28;20299;-79
2021/12/15 12:04:49;;;;;;;7.00;5.10;;;9.30;99.90;;;;;;5063727;28;20209;-80
2021/12/15 12:07:15;;;;;;;6.63;4.97;;;9.30;99.90;;;;;;5063997;28;20178;-78
2021/12/15 12:09:43;;;;;;;5.77;4.50;;;9.30;99.90;;;;;;5064013;28;20202;-76
2021/12/15 12:12:10;;;;;;;6.23;4.50;;;9.40;99.90;;;;;;5062539;28;20323;-80
2021/12/15 12:14:48;;;;;;;5.63;3.90;;;9.30;99.90;;;;;;5066594;28;20186;-77
2021/12/15 12:17:19;;;;;;;4.00;3.53;;;9.30;99.90;;;;;;5047881;28;20647;-78
2021/12/15 12:19:57;;;;;;;5.40;4.00;;;9.40;99.90;;;;;;5054875;28;20210;-80
2021/12/15 12:22:29;;;;;;;4.37;3.33;;;9.40;99.90;;;;;;5066201;28;20185;-82
2021/12/15 12:24:58;;;;;;;5.13;3.53;;;9.40;99.90;;;;;;5067171;28;20246;-81
2021/12/15 12:27:27;;;;;;;3.70;3.20;;;9.40;99.90;;;;;;5049643;28;20185;-81
2021/12/15 12:29:55;;;;;;;4.30;3.13;;;9.40;99.90;;;;;;5056488;28;20224;-78
2021/12/15 12:32:21;;;;;;;3.73;3.30;;;9.30;99.90;;;;;;5058018;28;20182;-82
2021/12/15 12:34:48;;;;;;;4.00;3.20;;;9.40;99.90;;;;;;5049630;28;20349;-77
2021/12/15 12:37:15;;;;;;;4.50;3.43;;;9.30;99.90;;;;;;5049245;28;20196;-78
2021/12/15 12:39:43;;;;;;;4.43;3.27;;;9.30;99.90;;;;;;5066808;28;20216;-78
2021/12/15 12:42:26;;;;;;;4.50;3.47;;;9.30;99.90;;;;;;5056981;28;20185;-78
2021/12/15 12:44:53;;;;;;;3.63;2.87;;;9.20;99.90;;;;;;5046541;28;20205;-78
2021/12/15 12:47:33;;;;;;;2.90;2.57;;;9.20;99.90;;;;;;5063921;28;20450;-80
2021/12/15 12:50:14;;;;;;;3.53;3.20;;;9.20;99.90;;;;;;5048231;28;20232;-79
2021/12/15 13:01:16;;;;;;;6.47;4.10;;;9.20;99.90;;;;;;5068800;28;20270;-79
2021/12/15 13:03:54;;;;;;;4.87;3.63;;;9.20;99.90;;;;;;5067930;28;20195;-81
2021/12/15 13:06:39;;;;;;;4.83;3.77;;;9.20;99.90;;;;;;5047578;28;20670;-79
2021/12/15 13:09:17;;;;;;;6.43;3.43;;;9.20;99.90;;;;;;5046102;28;20185;-81
2021/12/15 13:11:47;;;;;;;7.37;3.97;;;9.30;99.90;;;;;;5065413;28;20189;-79
2021/12/15 13:14:31;;;;;;;6.17;3.93;;;9.30;99.90;;;;;;5065473;28;20220;-80
2021/12/15 13:17:00;;;;;;;4.67;3.63;;;9.30;99.90;;;;;;5047340;28;20201;-78
2021/12/15 13:19:42;;;;;;;5.00;3.70;;;9.20;99.90;;;;;;5047220;28;20236;-80
2021/12/15 13:30:56;;;;;;;7.47;5.33;;;9.20;99.90;;;;;;5065378;28;20228;-79
2021/12/15 13:33:31;;;;;;;11.47;9.53;;;9.30;99.90;;;;;;5064345;28;20183;-79
2021/12/15 13:36:00;;;;;;;11.83;8.80;;;9.20;99.90;;;;;;5046006;28;20203;-79
2021/12/15 13:38:35;;;;;;;6.67;4.60;;;9.20;99.90;;;;;;5046347;28;20211;-79
2021/12/15 13:41:14;;;;;;;5.53;3.93;;;9.20;99.90;;;;;;5064772;28;20772;-83
2021/12/15 13:43:45;;;;;;;4.43;3.87;;;9.30;99.90;;;;;;5064436;28;20181;-81
2021/12/15 13:46:29;;;;;;;5.63;4.20;;;9.20;99.90;;;;;;5064422;28;20186;-78
2021/12/15 13:49:17;;;;;;;6.03;4.20;;;9.10;99.90;;;;;;5063560;28;20181;-82
2021/12/15 13:52:25;;;;;;;27.47;15.67;;;9.10;99.90;;;;;;5043365;28;20861;-80
2021/12/15 13:54:52;;;;;;;10.63;7.37;;;9.10;99.90;;;;;;5006280;28;20613;-79
2021/12/15 13:57:26;;;;;;;6.37;5.60;;;9.00;99.90;;;;;;5055043;28;20729;-78
2021/12/15 14:00:02;;;;;;;7.43;5.97;;;9.00;99.90;;;;;;5063963;28;20329;-79
2021/12/15 14:02:35;;;;;;;5.90;4.97;;;9.10;99.90;;;;;;5065229;28;20234;-80
2021/12/15 14:05:26;;;;;;;5.87;3.77;;;9.00;99.90;;;;;;5066071;28;20208;-81
2021/12/15 14:08:08;;;;;;;5.37;4.10;;;9.00;99.90;;;;;;5048295;28;20186;-79
2021/12/15 14:10:34;;;;;;;5.53;4.00;;;9.10;99.90;;;;;;5059915;28;20296;-80
2021/12/15 14:13:03;;;;;;;5.07;4.43;;;9.00;99.90;;;;;;5052596;28;20288;-81
2021/12/15 14:15:35;;;;;;;5.87;4.43;;;8.90;99.90;;;;;;5050521;28;20228;-79
2021/12/15 14:18:04;;;;;;;5.43;4.10;;;9.00;99.90;;;;;;5051758;28;20193;-81
2021/12/15 14:20:33;;;;;;;5.53;4.00;;;9.00;99.90;;;;;;5051640;28;20215;-80
2021/12/15 14:23:09;;;;;;;6.30;5.30;;;8.90;99.90;;;;;;5069307;28;20643;-79
2021/12/15 14:25:37;;;;;;;12.17;8.40;;;8.90;99.90;;;;;;5051226;28;20220;-78
2021/12/15 14:28:12;;;;;;;10.67;6.23;;;9.00;99.90;;;;;;5067771;28;20186;-80
2021/12/15 14:30:39;;;;;;;6.40;5.03;;;9.00;99.90;;;;;;5050881;28;20197;-80
2021/12/15 14:33:22;;;;;;;7.87;5.80;;;8.90;99.90;;;;;;5051628;28;20654;-79
2021/12/15 14:35:49;;;;;;;6.07;4.73;;;8.90;99.90;;;;;;5052048;28;20714;-79
2021/12/15 14:38:15;;;;;;;5.90;5.07;;;8.90;99.90;;;;;;5070464;28;20220;-80
2021/12/15 14:40:41;;;;;;;5.30;4.73;;;8.80;99.90;;;;;;5045760;28;20223;-83
2021/12/15 14:43:11;;;;;;;5.97;4.80;;;8.90;99.90;;;;;;5067439;28;20178;-79
2021/12/15 14:45:37;;;;;;;7.37;5.17;;;8.80;99.90;;;;;;5049623;28;20262;-80